Time;durP1;ratioP1;P1;durP2;ratioP2;P2;SDS_P1;SDS_P2;PMS_P1;PMS_P2;Temp;Humidity;BMP_temperature;BMP_pressure;BME280_temperature;BME280_humidity;BME280_pressure;Samples;Min_cycle;Max_cycle;Signal;HPM_P1;HPM_P2
2022/06/07 00:00:41;;;;;;;14.75;5.53;;;13.70;99.90;;;;;;5054009;28;20048;-36
2022/06/07 00:03:07;;;;;;;6.68;4.70;;;13.70;99.90;;;;;;5054033;28;20583;-37
2022/06/07 00:05:32;;;;;;;13.88;5.28;;;13.70;99.90;;;;;;5045845;28;20559;-37
2022/06/07 00:07:58;;;;;;;9.43;4.70;;;13.70;99.90;;;;;;5049886;28;20013;-36
2022/06/07 00:10:24;;;;;;;9.90;5.47;;;13.80;99.90;;;;;;5036587;28;20033;-37
2022/06/07 00:12:51;;;;;;;10.70;5.45;;;13.80;99.90;;;;;;5039451;28;20095;-37
2022/06/07 00:15:17;;;;;;;10.00;5.97;;;13.80;99.90;;;;;;5035326;28;20140;-38
2022/06/07 00:17:44;;;;;;;9.23;5.00;;;13.80;99.90;;;;;;5037076;28;20495;-36
2022/06/07 00:20:10;;;;;;;6.88;5.40;;;13.80;99.90;;;;;;5034668;28;20053;-37
2022/06/07 00:22:36;;;;;;;11.68;5.35;;;13.80;99.90;;;;;;5034188;28;20017;-36
2022/06/07 00:25:05;;;;;;;8.77;5.80;;;13.80;99.90;;;;;;5035292;28;20492;-38
2022/06/07 00:27:30;;;;;;;11.50;5.30;;;13.80;99.90;;;;;;5034286;28;20021;-37
2022/06/07 00:29:57;;;;;;;9.23;5.07;;;13.80;99.90;;;;;;5040105;28;20112;-36
2022/06/07 00:32:23;;;;;;;6.43;5.18;;;13.80;99.90;;;;;;5034482;28;20124;-37
2022/06/07 00:34:49;;;;;;;11.27;6.10;;;13.80;99.90;;;;;;5053351;28;20028;-36
2022/06/07 00:37:14;;;;;;;13.93;6.35;;;13.80;99.90;;;;;;5035055;28;20037;-36
2022/06/07 00:39:40;;;;;;;9.18;6.63;;;13.80;99.90;;;;;;5034005;28;20026;-36
2022/06/07 00:42:06;;;;;;;8.60;5.97;;;13.80;99.90;;;;;;5048623;28;20483;-36
2022/06/07 00:44:37;;;;;;;8.60;5.72;;;13.90;99.90;;;;;;5043474;28;20044;-37
2022/06/07 00:47:09;;;;;;;8.20;5.90;;;13.90;99.90;;;;;;5033119;28;20025;-37
2022/06/07 00:49:51;;;;;;;9.23;5.75;;;13.90;99.90;;;;;;5044031;28;20174;-38
2022/06/07 00:52:20;;;;;;;9.60;6.47;;;13.90;99.90;;;;;;5033621;28;20496;-36
2022/06/07 00:54:46;;;;;;;9.65;6.15;;;13.80;99.90;;;;;;5036740;28;20052;-37
2022/06/07 00:57:11;;;;;;;11.25;6.45;;;13.80;99.90;;;;;;5042013;28;20057;-37
2022/06/07 00:59:38;;;;;;;10.15;6.13;;;13.80;99.90;;;;;;5033665;28;20030;-36
2022/06/07 01:02:04;;;;;;;9.52;5.93;;;13.80;99.90;;;;;;5041010;28;20025;-38
2022/06/07 01:04:30;;;;;;;10.35;5.63;;;13.80;99.90;;;;;;5034278;28;20465;-38
2022/06/07 01:12:25;;;;;;;9.70;5.88;;;13.70;99.90;;;;;;5033908;28;20405;-38
2022/06/07 01:14:51;;;;;;;7.93;5.05;;;13.70;99.90;;;;;;5038271;28;20037;-38
2022/06/07 01:17:17;;;;;;;7.53;5.28;;;13.70;99.90;;;;;;5040191;28;20033;-36
2022/06/07 01:19:43;;;;;;;10.38;6.00;;;13.70;99.90;;;;;;5032823;28;20405;-52
2022/06/07 01:22:09;;;;;;;7.13;4.93;;;13.70;99.90;;;;;;5032944;28;20032;-36
2022/06/07 01:24:36;;;;;;;8.68;5.15;;;13.60;99.90;;;;;;5034608;28;20021;-38
2022/06/07 01:27:02;;;;;;;9.85;5.13;;;13.60;99.90;;;;;;5035963;28;20044;-37
2022/06/07 01:29:28;;;;;;;9.70;5.68;;;13.60;99.90;;;;;;5039843;28;20043;-37
2022/06/07 01:31:53;;;;;;;8.15;5.07;;;13.60;99.90;;;;;;5039250;28;20029;-37
2022/06/07 01:34:19;;;;;;;13.57;5.38;;;13.60;99.90;;;;;;5038785;28;20025;-37
2022/06/07 01:36:44;;;;;;;10.32;5.95;;;13.60;99.90;;;;;;5040629;28;20025;-36
2022/06/07 01:41:54;;;;;;;9.68;6.47;;;13.70;99.90;;;;;;5053265;28;20099;-37
2022/06/07 01:44:25;;;;;;;11.90;6.05;;;13.70;99.90;;;;;;5046198;28;20463;-38
2022/06/07 01:46:52;;;;;;;7.65;5.93;;;13.70;99.90;;;;;;5053163;28;20025;-34
2022/06/07 01:49:18;;;;;;;9.17;6.00;;;13.70;99.90;;;;;;5049862;28;20029;-32
2022/06/07 01:51:44;;;;;;;10.07;6.03;;;13.70;99.90;;;;;;5033551;28;20032;-33
2022/06/07 01:54:12;;;;;;;10.32;5.70;;;13.70;99.90;;;;;;5046645;28;20029;-32
2022/06/07 01:56:38;;;;;;;6.70;5.53;;;13.80;99.90;;;;;;5051083;28;20112;-36
2022/06/07 01:59:04;;;;;;;9.02;5.97;;;13.80;99.90;;;;;;5042170;28;20389;-35
2022/06/07 02:01:30;;;;;;;8.35;5.32;;;13.80;99.90;;;;;;5037903;28;20017;-34
2022/06/07 02:03:55;;;;;;;11.93;5.60;;;13.80;99.90;;;;;;5032961;28;20527;-35
2022/06/07 02:06:21;;;;;;;12.43;6.35;;;13.80;99.90;;;;;;5033710;28;20100;-38
2022/06/07 02:08:46;;;;;;;9.10;6.70;;;13.80;99.90;;;;;;5049365;28;20044;-33
2022/06/07 02:11:24;;;;;;;10.18;5.97;;;13.80;99.90;;;;;;5032987;28;20033;-35
2022/06/07 02:13:50;;;;;;;9.05;6.43;;;13.80;99.90;;;;;;5035329;28;20163;-34
2022/06/07 02:16:16;;;;;;;9.35;6.13;;;13.80;99.90;;;;;;5035021;28;20033;-31
2022/06/07 02:18:42;;;;;;;9.65;6.40;;;13.80;99.90;;;;;;5032710;28;20508;-36
2022/06/07 02:21:09;;;;;;;8.27;5.97;;;13.80;99.90;;;;;;5047873;28;20568;-30
2022/06/07 02:23:37;;;;;;;11.82;7.03;;;13.80;99.90;;;;;;5052651;28;20044;-33
2022/06/07 02:26:08;;;;;;;;;;;13.80;99.90;;;;;;5049324;28;20036;-35
2022/06/07 02:28:40;;;;;;;9.15;5.90;;;13.90;99.90;;;;;;5051889;28;19912;-36
2022/06/07 02:31:08;;;;;;;13.15;6.82;;;13.90;99.90;;;;;;5048610;28;20465;-35
2022/06/07 02:33:35;;;;;;;11.77;7.25;;;13.90;99.90;;;;;;5045483;28;20025;-34
2022/06/07 02:36:02;;;;;;;10.05;6.50;;;13.90;99.90;;;;;;5055722;28;20023;-34
2022/06/07 02:38:28;;;;;;;15.50;7.97;;;13.90;99.90;;;;;;5052441;28;20116;-35
2022/06/07 02:40:54;;;;;;;15.35;6.90;;;13.90;99.90;;;;;;5048200;28;20100;-31
2022/06/07 02:43:20;;;;;;;14.98;7.72;;;13.90;99.90;;;;;;5055829;28;20017;-32
2022/06/07 02:45:46;;;;;;;10.48;7.10;;;13.80;99.90;;;;;;5056134;28;20021;-37
2022/06/07 02:48:12;;;;;;;12.27;7.50;;;13.80;99.90;;;;;;5047061;28;20076;-35
2022/06/07 02:50:38;;;;;;;11.50;6.85;;;13.80;99.90;;;;;;5035694;28;20067;-32
2022/06/07 02:53:04;;;;;;;9.98;6.53;;;13.80;99.90;;;;;;5040713;28;20567;-35
2022/06/07 02:55:33;;;;;;;12.85;8.35;;;13.80;99.90;;;;;;5055162;28;20067;-32
2022/06/07 02:57:59;;;;;;;9.82;6.75;;;13.80;99.90;;;;;;5048744;28;20025;-38
2022/06/07 03:00:25;;;;;;;10.98;6.70;;;13.80;99.90;;;;;;5047929;28;20040;-37
2022/06/07 03:02:51;;;;;;;11.02;7.25;;;13.80;99.90;;;;;;5046542;28;20116;-36
2022/06/07 03:05:16;;;;;;;11.38;7.25;;;13.80;99.90;;;;;;5044178;28;20038;-38
2022/06/07 03:07:42;;;;;;;12.00;6.43;;;13.80;99.90;;;;;;5054345;28;20546;-39
2022/06/07 03:10:10;;;;;;;10.27;6.93;;;13.80;99.90;;;;;;5035286;28;20372;-36
2022/06/07 03:12:35;;;;;;;10.23;6.22;;;13.80;99.90;;;;;;5035304;28;20033;-38
2022/06/07 03:15:02;;;;;;;13.85;7.63;;;13.90;99.90;;;;;;5039779;28;20021;-31
2022/06/07 03:17:27;;;;;;;10.07;6.75;;;13.80;99.90;;;;;;5041735;28;20025;-37
2022/06/07 03:19:53;;;;;;;12.32;7.45;;;13.90;99.90;;;;;;5035087;28;20048;-37
2022/06/07 03:22:19;;;;;;;16.33;7.00;;;13.80;99.90;;;;;;5035833;28;20021;-37
2022/06/07 03:24:45;;;;;;;11.82;7.28;;;13.80;99.90;;;;;;5051990;28;20056;-37
2022/06/07 03:27:12;;;;;;;13.68;7.53;;;13.80;99.90;;;;;;5048369;28;20508;-37
2022/06/07 03:29:38;;;;;;;11.88;6.90;;;13.80;99.90;;;;;;5035187;28;20389;-34
2022/06/07 03:32:06;;;;;;;10.05;6.55;;;13.80;99.90;;;;;;5052511;28;20024;-36
2022/06/07 03:34:32;;;;;;;10.00;6.35;;;13.90;99.90;;;;;;5043782;28;20029;-35
2022/06/07 03:36:59;;;;;;;10.75;6.85;;;13.90;99.90;;;;;;5042134;28;20496;-32
2022/06/07 03:39:24;;;;;;;15.25;7.65;;;13.90;99.90;;;;;;5055332;28;20506;-33
2022/06/07 03:41:50;;;;;;;14.05;7.22;;;13.90;99.90;;;;;;5042797;28;20025;-35
2022/06/07 03:44:15;;;;;;;10.10;6.32;;;13.90;99.90;;;;;;5034356;28;20022;-33
2022/06/07 03:46:44;;;;;;;12.65;7.53;;;13.90;99.90;;;;;;5034084;28;20028;-30
2022/06/07 03:49:10;;;;;;;11.32;7.20;;;13.80;99.90;;;;;;5037568;28;20033;-48
2022/06/07 03:51:36;;;;;;;16.35;7.63;;;13.90;99.90;;;;;;5046285;28;20040;-34
2022/06/07 03:54:04;;;;;;;12.40;7.40;;;13.90;99.90;;;;;;5034955;28;20485;-34
2022/06/07 03:56:29;;;;;;;;;;;13.90;99.90;;;;;;5036442;28;20049;-31
2022/06/07 03:58:55;;;;;;;12.27;6.80;;;13.90;99.90;;;;;;5034701;28;19975;-33
2022/06/07 04:01:23;;;;;;;10.70;6.90;;;13.90;99.90;;;;;;5034437;28;20030;-35
2022/06/07 04:03:52;;;;;;;9.80;6.63;;;14.00;99.90;;;;;;5034568;28;20497;-33
2022/06/07 04:08:10;;;;;;;11.75;5.95;;;14.00;99.90;;;;;;5049677;28;20491;-35
2022/06/07 04:09:28;;;;;;;9.70;6.07;;;14.00;99.90;;;;;;5050956;28;20120;-31
2022/06/07 04:11:54;;;;;;;12.27;6.22;;;14.00;99.90;;;;;;5049043;28;20053;-33
2022/06/07 04:14:20;;;;;;;9.63;6.68;;;14.00;99.90;;;;;;5033054;28;20115;-33
2022/06/07 04:16:45;;;;;;;11.45;7.10;;;14.00;99.90;;;;;;5035824;28;20026;-34
2022/06/07 04:19:11;;;;;;;9.18;6.32;;;14.00;99.90;;;;;;5034153;28;20096;-34
2022/06/07 04:21:37;;;;;;;11.63;6.93;;;14.00;99.90;;;;;;5033875;28;20029;-37
2022/06/07 04:24:02;;;;;;;10.75;7.28;;;14.00;99.90;;;;;;5036716;28;20033;-37
2022/06/07 04:26:28;;;;;;;12.07;6.78;;;14.00;99.90;;;;;;5054214;28;20472;-36
2022/06/07 04:28:56;;;;;;;10.68;6.57;;;14.00;99.90;;;;;;5045535;28;20033;-36
2022/06/07 04:31:24;;;;;;;14.23;6.80;;;14.10;99.90;;;;;;5050031;28;20550;-37
2022/06/07 04:33:54;;;;;;;9.70;6.82;;;14.10;99.90;;;;;;5050232;28;20036;-37
2022/06/07 04:36:22;;;;;;;12.93;6.50;;;14.10;99.90;;;;;;5034126;28;20080;-36
2022/06/07 04:38:49;;;;;;;10.82;7.05;;;14.10;99.90;;;;;;5033742;28;20041;-36
2022/06/07 04:41:17;;;;;;;11.57;6.90;;;14.10;99.90;;;;;;5047140;28;20040;-41
2022/06/07 04:43:43;;;;;;;10.63;7.15;;;14.10;99.90;;;;;;5036983;28;20025;-38
2022/06/07 04:46:11;;;;;;;13.63;7.85;;;14.20;99.90;;;;;;5033817;28;20021;-37
2022/06/07 04:48:39;;;;;;;;;;;14.10;99.90;;;;;;5033942;28;20018;-32
2022/06/07 04:51:06;;;;;;;8.55;6.25;;;14.10;99.90;;;;;;5049381;28;19949;-38
2022/06/07 04:53:32;;;;;;;9.52;6.50;;;14.10;99.90;;;;;;5052623;28;20029;-34
2022/06/07 04:55:59;;;;;;;13.05;7.13;;;14.20;99.90;;;;;;5052922;28;20543;-38
2022/06/07 04:58:25;;;;;;;13.97;6.80;;;14.20;99.90;;;;;;5036581;28;20061;-32
2022/06/07 05:00:51;;;;;;;14.20;7.80;;;14.20;99.90;;;;;;5051101;28;20355;-32
2022/06/07 05:03:16;;;;;;;10.38;6.40;;;14.20;99.90;;;;;;5053540;28;20021;-36
2022/06/07 05:05:42;;;;;;;13.48;7.20;;;14.20;99.90;;;;;;5040560;28;20017;-37
2022/06/07 05:08:07;;;;;;;12.88;6.93;;;14.30;99.90;;;;;;5033995;28;20397;-32
2022/06/07 05:10:33;;;;;;;11.20;7.15;;;14.30;99.90;;;;;;5050812;28;20040;-33
2022/06/07 05:13:03;;;;;;;10.75;7.32;;;14.40;99.90;;;;;;5034380;28;20480;-47
2022/06/07 05:15:29;;;;;;;11.45;6.75;;;14.40;99.90;;;;;;5042989;28;20025;-38
2022/06/07 05:17:54;;;;;;;12.65;6.78;;;14.50;99.90;;;;;;5033691;28;20112;-36
2022/06/07 05:20:20;;;;;;;9.82;6.20;;;14.40;99.90;;;;;;5033653;28;20049;-38
2022/06/07 05:22:46;;;;;;;15.13;6.70;;;14.50;99.90;;;;;;5033356;28;20025;-37
2022/06/07 05:25:11;;;;;;;9.00;6.55;;;14.50;99.90;;;;;;5052502;28;20096;-39
2022/06/07 05:27:41;;;;;;;16.00;6.50;;;14.60;99.90;;;;;;5051089;28;20167;-38
2022/06/07 05:30:10;;;;;;;10.88;6.88;;;14.60;99.90;;;;;;5053173;28;20052;-36
2022/06/07 05:32:36;;;;;;;13.20;6.82;;;14.60;99.90;;;;;;5049874;28;20032;-38
2022/06/07 05:35:05;;;;;;;10.38;5.95;;;14.70;99.90;;;;;;5052059;28;20021;-37
2022/06/07 05:37:31;;;;;;;11.10;7.32;;;14.70;99.90;;;;;;5036073;28;20029;-37
2022/06/07 05:39:57;;;;;;;9.68;5.93;;;14.70;99.90;;;;;;5035066;28;20103;-38
2022/06/07 05:42:22;;;;;;;12.10;6.68;;;14.70;99.90;;;;;;5031461;28;20088;-36
2022/06/07 05:44:48;;;;;;;11.80;6.57;;;14.80;99.90;;;;;;5031608;28;20018;-36
2022/06/07 05:47:14;;;;;;;10.40;5.90;;;14.80;99.90;;;;;;5050956;28;20042;-38
2022/06/07 05:49:39;;;;;;;9.93;6.53;;;14.90;99.90;;;;;;5066538;28;20028;-38
2022/06/07 05:52:07;;;;;;;8.90;5.55;;;15.00;99.90;;;;;;5033291;28;20024;-37
2022/06/07 05:54:34;;;;;;;11.40;5.95;;;15.10;99.90;;;;;;5032647;28;20029;-37
2022/06/07 05:57:01;;;;;;;;;;;15.10;99.90;;;;;;5037639;28;20028;-37
2022/06/07 05:59:26;;;;;;;13.43;5.03;;;15.10;99.90;;;;;;5050592;28;19920;-37
2022/06/07 06:01:52;;;;;;;8.38;5.53;;;15.10;99.90;;;;;;5039267;28;20489;-36
2022/06/07 06:04:18;;;;;;;10.68;6.25;;;15.10;99.90;;;;;;5045083;28;20576;-36
2022/06/07 06:06:44;;;;;;;8.80;5.55;;;15.10;99.90;;;;;;5048283;28;20026;-37
2022/06/07 06:11:55;;;;;;;9.88;5.45;;;15.20;99.90;;;;;;5050980;28;20048;-36
2022/06/07 06:14:22;;;;;;;11.35;6.18;;;15.20;99.90;;;;;;5053958;28;20025;-38
2022/06/07 06:16:48;;;;;;;10.00;6.10;;;15.20;99.90;;;;;;5050295;28;20484;-44
2022/06/07 06:19:13;;;;;;;13.38;6.57;;;15.20;99.90;;;;;;5039563;28;20041;-34
2022/06/07 06:21:43;;;;;;;10.38;6.50;;;15.30;99.90;;;;;;5036570;28;20025;-38
2022/06/07 06:24:27;;;;;;;12.63;6.25;;;15.20;99.90;;;;;;5049229;28;20094;-38
2022/06/07 06:26:54;;;;;;;9.40;6.32;;;15.20;99.90;;;;;;5055563;28;20024;-36
2022/06/07 06:29:20;;;;;;;9.02;5.07;;;15.30;99.90;;;;;;5052737;28;20492;-38
2022/06/07 06:31:48;;;;;;;9.95;5.85;;;15.30;99.90;;;;;;5051856;28;20025;-38
2022/06/07 06:34:14;;;;;;;13.73;5.93;;;15.30;99.90;;;;;;5054738;28;20040;-37
2022/06/07 06:36:40;;;;;;;8.40;5.47;;;15.50;99.90;;;;;;5054353;28;20020;-36
2022/06/07 06:39:06;;;;;;;11.10;5.18;;;15.60;99.90;;;;;;5055378;28;20025;-38
2022/06/07 06:41:33;;;;;;;6.70;5.03;;;15.80;99.90;;;;;;5047462;28;20028;-38
2022/06/07 06:44:01;;;;;;;10.02;5.57;;;16.30;99.90;;;;;;5056425;28;20040;-37
2022/06/07 06:46:30;;;;;;;9.85;5.18;;;16.60;99.90;;;;;;5056114;28;20025;-42
2022/06/07 06:48:56;;;;;;;5.88;4.28;;;16.50;99.90;;;;;;5038741;28;20022;-36
2022/06/07 06:51:24;;;;;;;9.43;4.70;;;16.30;99.90;;;;;;5043273;28;20083;-36
2022/06/07 06:53:50;;;;;;;11.32;5.63;;;16.20;99.90;;;;;;5044394;28;20462;-38
2022/06/07 06:56:20;;;;;;;9.63;5.15;;;16.10;99.90;;;;;;5041114;28;20112;-36
2022/06/07 06:58:47;;;;;;;6.90;4.20;;;16.40;99.90;;;;;;5043350;28;20488;-38
2022/06/07 07:01:17;;;;;;;10.20;4.20;;;16.50;99.90;;;;;;5052815;28;20019;-38
2022/06/07 07:03:43;;;;;;;5.93;4.22;;;16.60;99.90;;;;;;5054996;28;20432;-38
2022/06/07 07:06:10;;;;;;;6.32;4.15;;;16.60;99.90;;;;;;5039161;28;20025;-38
2022/06/07 07:08:38;;;;;;;;;;;16.50;99.90;;;;;;5036170;28;20105;-38
2022/06/07 07:11:42;;;;;;;6.00;4.45;;;16.20;99.90;;;;;;5035925;28;19928;-38
2022/06/07 07:14:08;;;;;;;5.68;4.20;;;16.10;99.90;;;;;;5032428;28;20076;-37
2022/06/07 07:16:38;;;;;;;5.88;4.65;;;16.10;99.90;;;;;;5048561;28;20033;-38
2022/06/07 07:19:04;;;;;;;8.15;4.05;;;16.20;99.90;;;;;;5046665;28;20049;-38
2022/06/07 07:21:33;;;;;;;8.02;3.70;;;16.30;99.90;;;;;;5034199;28;20036;-38
2022/06/07 07:24:00;;;;;;;6.90;5.15;;;16.40;99.90;;;;;;5035485;28;20036;-39
2022/06/07 07:26:30;;;;;;;4.82;3.95;;;16.40;99.90;;;;;;5037677;28;20108;-41
2022/06/07 07:28:56;;;;;;;10.63;4.47;;;16.40;99.90;;;;;;5042552;28;20440;-37
2022/06/07 07:31:24;;;;;;;11.20;4.57;;;16.60;99.90;;;;;;5035422;28;20053;-39
2022/06/07 07:33:51;;;;;;;8.05;4.65;;;17.30;99.90;;;;;;5038477;28;20029;-36
2022/06/07 07:36:18;;;;;;;13.43;5.10;;;17.40;99.90;;;;;;5034838;28;20029;-34
2022/06/07 07:38:43;;;;;;;8.13;4.95;;;17.30;99.90;;;;;;5035815;28;20365;-37
2022/06/07 07:41:18;;;;;;;9.30;4.22;;;17.10;99.90;;;;;;5035202;28;20478;-35
2022/06/07 07:43:44;;;;;;;8.13;4.85;;;17.00;99.90;;;;;;5045567;28;20017;-38
2022/06/07 07:46:11;;;;;;;8.98;4.57;;;17.00;99.90;;;;;;5044776;28;20273;-39
2022/06/07 07:48:36;;;;;;;7.68;4.38;;;17.00;99.90;;;;;;5042159;28;20580;-38
2022/06/07 07:51:07;;;;;;;10.00;6.28;;;16.90;99.90;;;;;;5036897;28;20115;-38
2022/06/07 07:53:33;;;;;;;9.05;4.68;;;16.90;99.90;;;;;;5047159;28;20105;-35
2022/06/07 07:55:59;;;;;;;9.43;4.85;;;17.00;99.90;;;;;;5035952;28;20013;-37
2022/06/07 07:58:25;;;;;;;12.10;6.43;;;17.00;99.90;;;;;;5054978;28;20025;-39
2022/06/07 08:00:50;;;;;;;11.95;5.25;;;17.10;99.90;;;;;;5054696;28;20021;-37
2022/06/07 08:03:18;;;;;;;9.80;5.07;;;17.10;99.90;;;;;;5042227;28;20037;-35
2022/06/07 08:05:45;;;;;;;9.25;4.82;;;17.10;99.90;;;;;;5037570;28;20481;-34
2022/06/07 08:08:12;;;;;;;5.70;4.43;;;17.10;99.90;;;;;;5048394;28;20116;-32
2022/06/07 08:10:38;;;;;;;12.05;5.70;;;17.20;99.90;;;;;;5037818;28;20313;-36
2022/06/07 08:13:06;;;;;;;11.70;4.90;;;17.10;99.90;;;;;;5036062;28;20087;-36
2022/06/07 08:15:33;;;;;;;10.43;5.03;;;16.80;99.90;;;;;;5034564;28;20482;-34
2022/06/07 08:18:02;;;;;;;11.27;4.88;;;16.70;99.90;;;;;;5036386;28;20033;-35
2022/06/07 08:20:29;;;;;;;10.18;5.22;;;16.70;99.90;;;;;;5043707;28;20500;-40
2022/06/07 08:22:55;;;;;;;11.23;5.38;;;16.60;99.90;;;;;;5040615;28;20473;-35
2022/06/07 08:25:21;;;;;;;5.30;4.55;;;16.70;99.90;;;;;;5045822;28;20056;-42
2022/06/07 08:27:47;;;;;;;9.63;3.97;;;16.70;99.90;;;;;;5047151;28;20509;-35
2022/06/07 08:30:13;;;;;;;8.43;3.88;;;16.70;99.90;;;;;;5040131;28;20025;-35
2022/06/07 08:32:39;;;;;;;9.63;4.80;;;16.80;99.90;;;;;;5054087;28;20048;-32
2022/06/07 08:37:49;;;;;;;11.15;6.07;;;16.90;99.90;;;;;;5042917;28;20063;-42
2022/06/07 08:40:23;;;;;;;8.65;5.50;;;16.90;99.90;;;;;;5032800;28;20037;-38
2022/06/07 08:43:01;;;;;;;14.55;5.28;;;16.90;99.90;;;;;;5039553;28;20032;-38
2022/06/07 08:45:34;;;;;;;;;;;16.90;99.90;;;;;;5046474;28;20097;-36
2022/06/07 08:48:15;;;;;;;10.88;4.57;;;16.90;99.90;;;;;;5041627;28;19954;-36
2022/06/07 08:50:50;;;;;;;9.52;3.95;;;17.00;99.90;;;;;;5040786;28;20096;-38
2022/06/07 08:53:24;;;;;;;8.85;4.70;;;17.10;99.90;;;;;;5034996;28;20159;-36
2022/06/07 08:55:57;;;;;;;7.43;4.25;;;16.90;99.90;;;;;;5045756;28;20025;-36
2022/06/07 08:58:34;;;;;;;8.82;5.10;;;16.90;99.90;;;;;;5049273;28;20493;-37
2022/06/07 09:01:19;;;;;;;8.80;4.65;;;16.90;99.90;;;;;;5034229;28;20462;-37
2022/06/07 09:04:03;;;;;;;5.18;3.90;;;17.00;99.90;;;;;;5033164;28;20075;-37
2022/06/07 09:06:36;;;;;;;8.00;3.92;;;16.90;99.90;;;;;;5036224;28;20151;-38
2022/06/07 09:09:03;;;;;;;8.18;4.95;;;16.90;99.90;;;;;;5034888;28;20408;-38
2022/06/07 09:14:39;;;;;;;5.75;4.68;;;17.00;99.90;;;;;;5038016;28;20053;-34
2022/06/07 09:17:11;;;;;;;7.10;4.97;;;17.10;99.90;;;;;;5042370;28;20029;-38
2022/06/07 09:19:38;;;;;;;7.75;4.70;;;17.10;99.90;;;;;;5038196;28;20454;-37
2022/06/07 09:22:16;;;;;;;9.38;4.47;;;17.10;99.90;;;;;;5045206;28;20503;-37
2022/06/07 09:24:51;;;;;;;7.22;5.32;;;17.20;99.90;;;;;;5045983;28;20017;-36
2022/06/07 09:27:21;;;;;;;5.05;3.88;;;17.30;99.90;;;;;;5042658;28;20025;-37
2022/06/07 09:29:56;;;;;;;7.57;5.30;;;17.60;99.90;;;;;;5033776;28;20026;-36
2022/06/07 09:32:26;;;;;;;8.88;5.10;;;17.90;99.90;;;;;;5042283;28;20440;-37
2022/06/07 09:35:00;;;;;;;8.75;5.43;;;18.10;99.90;;;;;;5043451;28;20025;-39
2022/06/07 09:37:49;;;;;;;8.05;4.97;;;18.20;99.90;;;;;;5042357;28;20105;-37
2022/06/07 09:40:27;;;;;;;5.68;4.07;;;18.50;99.90;;;;;;5032751;28;20511;-38
2022/06/07 09:43:14;;;;;;;5.95;4.03;;;18.80;99.90;;;;;;5031618;28;20108;-38
2022/06/07 09:45:56;;;;;;;8.68;4.82;;;19.00;99.90;;;;;;5031939;28;20565;-39
2022/06/07 09:48:43;;;;;;;4.07;3.67;;;19.30;99.90;;;;;;5033404;28;20072;-39
2022/06/07 09:51:19;;;;;;;6.87;4.13;;;19.50;99.90;;;;;;5032565;28;20087;-39
2022/06/07 09:53:56;;;;;;;7.50;4.05;;;19.70;99.90;;;;;;5033043;28;20269;-49
2022/06/07 09:57:05;;;;;;;5.10;3.63;;;19.90;99.90;;;;;;5033219;28;20469;-47
2022/06/07 09:59:30;;;;;;;5.57;3.25;;;20.20;99.90;;;;;;5027279;28;20168;-39
2022/06/07 10:02:21;;;;;;;6.15;3.72;;;20.20;99.90;;;;;;5033186;28;20044;-37
2022/06/07 10:04:50;;;;;;;3.67;3.22;;;20.00;99.90;;;;;;5032878;28;20466;-38
2022/06/07 10:07:23;;;;;;;6.18;3.92;;;19.90;99.90;;;;;;5033436;28;20021;-39
2022/06/07 10:09:58;;;;;;;8.15;4.38;;;19.90;99.90;;;;;;5033069;28;20100;-38
2022/06/07 10:12:50;;;;;;;9.18;4.43;;;19.70;99.90;;;;;;5032822;28;20029;-38
2022/06/07 10:15:50;;;;;;;5.60;4.20;;;19.60;99.90;;;;;;5032744;28;20040;-39
2022/06/07 10:18:26;;;;;;;5.85;3.85;;;19.60;99.90;;;;;;5032179;28;20037;-37
2022/06/07 10:21:17;;;;;;;7.63;4.25;;;19.70;99.90;;;;;;5032460;28;20033;-37
2022/06/07 10:23:59;;;;;;;5.55;4.03;;;19.60;99.90;;;;;;5052335;28;20112;-39
2022/06/07 10:26:46;;;;;;;6.30;4.15;;;19.40;99.90;;;;;;5043695;28;20500;-37
2022/06/07 10:29:40;;;;;;;9.05;5.65;;;19.20;99.90;;;;;;5036196;28;20025;-39
2022/06/07 10:32:15;;;;;;;7.93;4.30;;;19.00;99.90;;;;;;5033085;28;20029;-38
2022/06/07 10:34:56;;;;;;;12.65;4.53;;;18.80;99.90;;;;;;5035606;28;20359;-39
2022/06/07 10:37:33;;;;;;;5.28;4.43;;;18.60;99.90;;;;;;5045908;28;20379;-38
2022/06/07 10:40:08;;;;;;;9.85;4.70;;;18.40;99.90;;;;;;5050521;28;20480;-39
2022/06/07 10:42:47;;;;;;;9.63;4.50;;;18.30;99.90;;;;;;5033063;28;20104;-37
2022/06/07 10:45:19;;;;;;;7.57;4.80;;;18.10;99.90;;;;;;5032634;28;20497;-39
2022/06/07 10:47:56;;;;;;;6.65;5.22;;;18.10;99.90;;;;;;5031423;28;20022;-44
2022/06/07 10:50:45;;;;;;;8.27;5.57;;;18.00;99.90;;;;;;5032662;28;20033;-39
2022/06/07 10:53:20;;;;;;;7.85;4.95;;;18.00;99.90;;;;;;5041812;28;20505;-42
2022/06/07 10:56:06;;;;;;;6.60;4.25;;;18.10;99.90;;;;;;5052890;28;20025;-50
2022/06/07 10:58:48;;;;;;;6.22;4.55;;;18.30;99.90;;;;;;5040211;28;20025;-39
2022/06/07 11:01:15;;;;;;;6.88;4.60;;;18.40;99.90;;;;;;5045638;28;20626;-37
2022/06/07 11:04:05;;;;;;;14.07;5.35;;;18.50;99.90;;;;;;5038689;28;20018;-36
2022/06/07 11:09:48;;;;;;;7.55;4.95;;;18.50;99.90;;;;;;5041121;28;20095;-39
2022/06/07 11:12:19;;;;;;;7.88;5.35;;;18.40;99.90;;;;;;5038479;28;20120;-37
2022/06/07 11:15:10;;;;;;;7.78;5.03;;;18.30;99.90;;;;;;5045117;28;20121;-45
2022/06/07 11:18:00;;;;;;;11.05;5.20;;;18.20;99.90;;;;;;5054810;28;20435;-37
2022/06/07 11:20:32;;;;;;;9.07;4.85;;;18.10;99.90;;;;;;5035455;28;20041;-37
2022/06/07 11:23:23;;;;;;;6.32;4.75;;;18.00;99.90;;;;;;5035612;28;20569;-37
2022/06/07 11:25:58;;;;;;;7.50;4.65;;;18.00;99.90;;;;;;5035477;28;20022;-39
2022/06/07 11:28:40;;;;;;;7.22;4.45;;;18.10;99.90;;;;;;5043827;28;20550;-39
2022/06/07 11:31:15;;;;;;;5.15;3.85;;;18.10;99.90;;;;;;5050339;28;20053;-39
2022/06/07 11:33:53;;;;;;;9.05;4.68;;;18.20;99.90;;;;;;5041203;28;20071;-39
2022/06/07 11:36:24;;;;;;;6.68;4.68;;;18.20;99.90;;;;;;5035357;28;20017;-39
2022/06/07 11:38:56;;;;;;;11.13;4.65;;;18.10;99.90;;;;;;5035195;28;20573;-38
2022/06/07 11:41:42;;;;;;;6.53;4.25;;;18.20;99.90;;;;;;5042253;28;20397;-38
2022/06/07 11:44:08;;;;;;;8.10;6.05;;;18.20;99.90;;;;;;5055241;28;20099;-39
2022/06/07 11:46:33;;;;;;;9.35;5.68;;;18.20;99.90;;;;;;5054140;28;20147;-37
2022/06/07 11:49:19;;;;;;;9.05;5.72;;;18.10;99.90;;;;;;5054574;28;20021;-38
2022/06/07 11:52:08;;;;;;;8.98;4.60;;;18.00;99.90;;;;;;5034977;28;20029;-37
2022/06/07 11:54:54;;;;;;;8.00;4.63;;;18.10;99.90;;;;;;5035338;28;20478;-38
2022/06/07 11:57:35;;;;;;;6.90;5.18;;;18.30;99.90;;;;;;5035302;28;20044;-39
2022/06/07 12:00:19;;;;;;;7.50;4.72;;;18.40;99.90;;;;;;5045476;28;20021;-39
2022/06/07 12:02:56;;;;;;;6.30;3.75;;;18.50;99.90;;;;;;5054841;28;20025;-39
2022/06/07 12:05:43;;;;;;;8.68;4.45;;;18.40;99.90;;;;;;5047288;28;20024;-39
2022/06/07 12:08:26;;;;;;;5.40;4.18;;;18.30;99.90;;;;;;5051329;28;20028;-39
2022/06/07 12:11:03;;;;;;;15.30;4.82;;;18.40;99.90;;;;;;5054087;28;20037;-38
2022/06/07 12:13:50;;;;;;;7.53;4.22;;;18.60;99.90;;;;;;5047380;28;20040;-38
2022/06/07 12:16:30;;;;;;;6.43;4.35;;;18.50;99.90;;;;;;5034639;28;20546;-38
2022/06/07 12:18:58;;;;;;;9.70;4.15;;;18.50;99.90;;;;;;5044824;28;20420;-38
2022/06/07 12:21:24;;;;;;;;;;;18.50;99.90;;;;;;5054036;28;20052;-38
2022/06/07 12:24:17;;;;;;;7.30;4.60;;;18.60;99.90;;;;;;5052275;28;19905;-39
2022/06/07 12:26:47;;;;;;;8.15;4.63;;;18.70;99.90;;;;;;5053217;28;20048;-37
2022/06/07 12:29:20;;;;;;;7.97;5.18;;;18.90;99.90;;;;;;5054222;28;20469;-39
2022/06/07 12:31:50;;;;;;;10.63;5.32;;;18.90;99.90;;;;;;5038193;28;20083;-39
2022/06/07 12:34:26;;;;;;;7.15;5.10;;;19.10;99.90;;;;;;5039721;28;20096;-39
2022/06/07 12:36:57;;;;;;;7.32;5.22;;;19.20;99.90;;;;;;5038102;28;20076;-37
2022/06/07 12:39:24;;;;;;;7.65;4.63;;;19.50;99.90;;;;;;5031131;28;20547;-38
2022/06/07 12:41:56;;;;;;;16.05;5.15;;;19.80;99.90;;;;;;5031233;28;20056;-36
2022/06/07 12:44:36;;;;;;;12.73;4.90;;;20.10;99.90;;;;;;5034316;28;20052;-39
2022/06/07 12:47:03;;;;;;;10.65;5.32;;;20.10;99.90;;;;;;5036391;28;20013;-38
2022/06/07 12:49:31;;;;;;;;;;;19.90;99.90;;;;;;5054336;28;20397;-46
2022/06/07 12:52:05;;;;;;;7.80;4.53;;;19.60;99.90;;;;;;5033128;28;19912;-38
2022/06/07 12:54:33;;;;;;;10.77;5.63;;;19.60;99.90;;;;;;5051513;28;20040;-38
2022/06/07 12:57:04;;;;;;;8.95;5.13;;;19.50;99.90;;;;;;5037928;28;20017;-40
2022/06/07 12:59:50;;;;;;;7.18;5.53;;;19.50;99.90;;;;;;5039666;28;20021;-37
2022/06/07 13:02:23;;;;;;;7.38;5.10;;;19.70;99.90;;;;;;5032995;28;20028;-34
2022/06/07 13:05:00;;;;;;;7.15;5.50;;;19.90;99.90;;;;;;5032767;28;20037;-40
2022/06/07 13:07:42;;;;;;;9.13;5.93;;;19.80;99.90;;;;;;5036257;28;20121;-39
2022/06/07 13:10:14;;;;;;;8.32;5.25;;;19.40;99.90;;;;;;5041965;28;20107;-40
2022/06/07 13:12:43;;;;;;;9.35;5.20;;;19.50;99.90;;;;;;5040359;28;20025;-51
2022/06/07 13:15:25;;;;;;;9.90;5.18;;;19.40;99.90;;;;;;5036378;28;20063;-39
2022/06/07 13:18:21;;;;;;;10.18;6.30;;;19.40;99.90;;;;;;5044827;28;20032;-58
2022/06/07 13:20:49;;;;;;;11.68;7.10;;;19.90;99.90;;;;;;5045271;28;20037;-39
2022/06/07 13:23:32;;;;;;;8.98;6.45;;;20.10;99.90;;;;;;5040557;28;20048;-39